Time;durP1;ratioP1;P1;durP2;ratioP2;P2;SDS_P1;SDS_P2;PMS_P1;PMS_P2;Temp;Humidity;BMP_temperature;BMP_pressure;BME280_temperature;BME280_humidity;BME280_pressure;Samples;Min_cycle;Max_cycle;Signal;HPM_P1;HPM_P2
2021/06/12 00:02:05;;;;;;;1.47;1.13;;;23.90;99.90;;;;;;20990950;28;20229;-66
2021/06/12 00:12:09;;;;;;;1.17;1.00;;;23.40;99.90;;;;;;20988908;28;20611;-66
2021/06/12 00:22:14;;;;;;;1.10;0.97;;;23.20;99.90;;;;;;20961726;28;20205;-65
2021/06/12 00:32:17;;;;;;;1.63;1.20;;;23.10;99.90;;;;;;20905384;28;20261;-65
2021/06/12 00:42:22;;;;;;;2.63;1.53;;;23.10;99.90;;;;;;20902962;28;20276;-67
2021/06/12 00:52:25;;;;;;;1.33;0.80;;;23.00;99.90;;;;;;20904228;28;20308;-67
2021/06/12 01:02:30;;;;;;;2.90;1.10;;;23.00;99.90;;;;;;20900460;28;20222;-66
2021/06/12 01:12:42;;;;;;;1.70;1.00;;;23.00;99.90;;;;;;20902059;28;20231;-67
2021/06/12 01:23:06;;;;;;;3.63;1.00;;;22.90;99.90;;;;;;20915395;28;20196;-66
2021/06/12 01:33:13;;;;;;;1.90;1.80;;;23.00;99.90;;;;;;20966996;28;20248;-67
2021/06/12 01:43:18;;;;;;;1.80;1.30;;;22.80;99.90;;;;;;20981953;28;20196;-67
2021/06/12 01:53:30;;;;;;;1.53;1.07;;;22.80;99.90;;;;;;20991084;28;20752;-67
2021/06/12 02:03:34;;;;;;;1.17;1.00;;;22.70;99.90;;;;;;21000130;28;20719;-67
2021/06/12 02:13:41;;;;;;;2.07;1.07;;;22.60;99.90;;;;;;20999386;28;20244;-66
2021/06/12 02:23:44;;;;;;;3.70;1.00;;;22.50;99.90;;;;;;20955389;28;20288;-67
2021/06/12 02:33:49;;;;;;;1.83;1.17;;;22.40;99.90;;;;;;20914032;28;20316;-67
2021/06/12 02:43:52;;;;;;;5.30;0.83;;;22.30;99.90;;;;;;20914105;28;20204;-66
2021/06/12 02:53:58;;;;;;;18.20;1.13;;;22.20;99.90;;;;;;20895318;28;20221;-66
2021/06/12 03:04:03;;;;;;;1.43;1.33;;;22.30;99.90;;;;;;20911828;28;20228;-65
2021/06/12 03:14:12;;;;;;;1.40;1.00;;;22.20;99.90;;;;;;20910663;28;20236;-67
2021/06/12 03:24:16;;;;;;;3.30;0.77;;;22.20;99.90;;;;;;20955725;28;20204;-67
2021/06/12 03:34:22;;;;;;;1.73;0.97;;;22.50;99.90;;;;;;20992358;28;20685;-67
2021/06/12 03:44:26;;;;;;;0.50;0.50;;;22.60;99.90;;;;;;20992398;28;20595;-67
2021/06/12 03:54:32;;;;;;;1.40;1.30;;;22.70;99.90;;;;;;20991760;28;20233;-67
2021/06/12 04:04:35;;;;;;;1.20;0.90;;;22.60;99.90;;;;;;20989257;28;20236;-66
2021/06/12 04:14:40;;;;;;;1.20;0.80;;;22.40;99.90;;;;;;20991550;28;20216;-66
2021/06/12 04:24:43;;;;;;;1.33;0.90;;;22.30;99.90;;;;;;20989276;28;20196;-64
2021/06/12 04:34:48;;;;;;;1.17;0.87;;;22.30;99.90;;;;;;20969648;28;20224;-65
2021/06/12 04:44:51;;;;;;;0.93;0.70;;;22.30;99.90;;;;;;20985693;28;20201;-66
2021/06/12 04:54:56;;;;;;;3.87;1.47;;;22.40;99.90;;;;;;20984425;28;20252;-66
2021/06/12 05:04:59;;;;;;;0.63;0.53;;;22.40;99.90;;;;;;20984000;28;20224;-67
2021/06/12 05:15:04;;;;;;;1.67;0.97;;;22.50;99.90;;;;;;20984341;28;20256;-68
2021/06/12 05:25:08;;;;;;;2.03;1.10;;;22.50;99.90;;;;;;20915607;28;20293;-67
2021/06/12 05:35:13;;;;;;;3.00;1.23;;;22.70;99.90;;;;;;20900428;28;20290;-66
2021/06/12 05:45:16;;;;;;;1.03;0.93;;;23.00;99.90;;;;;;20899985;28;20284;-66
2021/06/12 05:55:20;;;;;;;1.50;1.40;;;23.20;99.90;;;;;;20899272;28;20607;-65
2021/06/12 06:05:24;;;;;;;1.30;0.87;;;23.40;99.90;;;;;;20898173;28;20308;-65
2021/06/12 06:15:29;;;;;;;1.97;1.37;;;23.70;99.90;;;;;;20879053;28;20228;-67
2021/06/12 06:25:32;;;;;;;1.17;0.93;;;24.00;99.90;;;;;;20951886;28;20271;-66
2021/06/12 06:35:39;;;;;;;1.33;1.23;;;24.40;99.90;;;;;;20980403;28;20716;-65
2021/06/12 06:45:46;;;;;;;5.07;1.42;;;24.70;99.90;;;;;;20994451;28;20207;-64
2021/06/12 06:55:51;;;;;;;1.77;1.25;;;25.00;99.90;;;;;;20993982;28;20212;-67
2021/06/12 07:05:54;;;;;;;6.72;2.38;;;25.50;99.90;;;;;;20974415;28;20567;-68
2021/06/12 07:15:59;;;;;;;2.58;2.30;;;25.90;99.90;;;;;;20991161;28;20239;-66
2021/06/12 07:26:02;;;;;;;6.22;2.35;;;25.80;99.90;;;;;;20990593;28;20594;-66
2021/06/12 07:36:07;;;;;;;3.47;2.13;;;25.50;99.90;;;;;;20990247;28;20307;-67
2021/06/12 07:46:10;;;;;;;4.13;1.80;;;25.40;99.90;;;;;;20989279;28;20363;-65
2021/06/12 07:56:15;;;;;;;3.30;2.15;;;25.50;99.90;;;;;;20985832;28;20633;-66
2021/06/12 08:06:18;;;;;;;2.20;1.60;;;25.80;99.90;;;;;;20985979;28;21779;-67
2021/06/12 08:16:24;;;;;;;2.58;2.25;;;26.00;99.90;;;;;;20982923;28;20255;-66
2021/06/12 08:26:27;;;;;;;2.83;1.63;;;25.90;99.90;;;;;;20951904;28;20190;-66
2021/06/12 08:36:31;;;;;;;3.08;1.73;;;26.20;99.90;;;;;;20934833;28;20560;-65
2021/06/12 08:46:35;;;;;;;5.53;2.05;;;26.50;99.90;;;;;;20900803;28;20201;-66
2021/06/12 08:56:39;;;;;;;4.32;3.88;;;27.00;99.90;;;;;;20897184;28;20237;-67
2021/06/12 09:06:42;;;;;;;2.55;1.83;;;27.50;99.90;;;;;;20896404;28;20304;-66
2021/06/12 09:16:47;;;;;;;2.10;1.73;;;27.50;99.90;;;;;;20898878;28;20329;-64
2021/06/12 09:26:53;;;;;;;3.42;3.03;;;27.70;99.90;;;;;;20962105;28;20654;-64
2021/06/12 09:37:08;;;;;;;3.45;3.15;;;28.00;99.90;;;;;;20978588;28;20307;-62
2021/06/12 09:47:23;;;;;;;4.72;2.13;;;28.50;99.90;;;;;;20959600;28;20283;-63
2021/06/12 09:57:28;;;;;;;5.10;3.40;;;28.70;99.90;;;;;;20977187;28;20551;-64
2021/06/12 10:07:31;;;;;;;2.88;2.50;;;28.60;99.90;;;;;;20978005;28;20217;-64
2021/06/12 10:17:42;;;;;;;3.75;2.65;;;29.10;99.90;;;;;;20990414;28;21366;-65
2021/06/12 10:27:46;;;;;;;2.75;1.98;;;29.10;99.90;;;;;;20919882;28;20231;-64
2021/06/12 10:37:58;;;;;;;2.25;1.70;;;29.70;99.90;;;;;;20892896;28;20221;-63
2021/06/12 10:48:01;;;;;;;4.15;2.25;;;29.90;99.90;;;;;;20910116;28;20202;-62
2021/06/12 10:58:42;;;;;;;3.97;1.60;;;30.30;99.90;;;;;;20896567;28;20219;-63
2021/06/12 11:09:39;;;;;;;1.90;1.60;;;30.80;99.90;;;;;;20986816;28;20278;-64
2021/06/12 11:19:46;;;;;;;3.80;1.80;;;30.60;99.90;;;;;;20990855;28;20221;-62
2021/06/12 11:30:21;;;;;;;2.20;1.67;;;31.10;99.90;;;;;;20972302;28;20642;-64
2021/06/12 11:40:28;;;;;;;3.58;2.60;;;32.30;99.90;;;;;;20988793;28;20315;-64
2021/06/12 11:50:33;;;;;;;2.80;1.88;;;32.60;99.90;;;;;;20989196;28;20192;-63
2021/06/12 12:00:39;;;;;;;3.30;2.08;;;33.10;99.90;;;;;;20988137;28;20286;-63
2021/06/12 12:10:46;;;;;;;3.22;2.08;;;32.60;99.90;;;;;;20988844;28;20204;-62
2021/06/12 12:20:52;;;;;;;2.58;1.77;;;33.80;99.90;;;;;;20970727;28;20614;-63
2021/06/12 12:31:06;;;;;;;3.25;2.20;;;33.50;99.90;;;;;;20903638;28;20205;-64
2021/06/12 12:41:17;;;;;;;3.45;2.45;;;34.00;99.90;;;;;;20902206;28;20243;-63
2021/06/12 12:51:24;;;;;;;2.40;1.75;;;34.10;99.90;;;;;;20902479;28;20197;-63
2021/06/12 13:01:33;;;;;;;5.15;2.20;;;34.80;99.90;;;;;;20899112;28;20229;-64
2021/06/12 13:11:47;;;;;;;3.50;2.35;;;34.70;99.90;;;;;;20882582;28;20697;-64
2021/06/12 13:21:52;;;;;;;2.75;1.52;;;34.40;99.90;;;;;;20924723;28;20196;-65
2021/06/12 13:31:55;;;;;;;2.58;1.80;;;34.80;99.90;;;;;;20982393;28;20207;-64
2021/06/12 13:42:12;;;;;;;4.38;2.70;;;35.00;99.90;;;;;;20981883;28;20197;-63
2021/06/12 13:52:18;;;;;;;3.70;2.47;;;35.20;99.90;;;;;;20978414;28;20216;-65
2021/06/12 14:02:22;;;;;;;5.15;2.38;;;35.20;99.90;;;;;;20978667;28;20316;-65
2021/06/12 14:12:25;;;;;;;2.80;2.20;;;34.40;99.90;;;;;;20924291;28;20213;-62
2021/06/12 14:22:30;;;;;;;3.78;2.50;;;35.40;99.90;;;;;;20948367;28;20280;-63
2021/06/12 14:32:36;;;;;;;3.00;1.95;;;34.70;99.90;;;;;;20977277;28;20217;-63
2021/06/12 14:42:40;;;;;;;2.60;2.08;;;35.80;99.90;;;;;;20959797;28;20200;-64
2021/06/12 14:52:43;;;;;;;2.70;1.98;;;36.70;99.90;;;;;;20974177;28;20311;-64
2021/06/12 15:02:49;;;;;;;2.95;1.95;;;36.20;99.90;;;;;;20984336;28;20307;-63
2021/06/12 15:12:52;;;;;;;2.90;2.40;;;35.90;99.90;;;;;;20970936;28;20216;-64
2021/06/12 15:22:57;;;;;;;2.55;2.25;;;36.30;99.90;;;;;;20989423;28;20208;-66
2021/06/12 15:33:01;;;;;;;2.92;1.60;;;36.20;99.90;;;;;;20989026;28;20232;-64
2021/06/12 15:43:06;;;;;;;2.05;1.80;;;35.90;99.90;;;;;;20988008;28;20193;-64
2021/06/12 15:53:09;;;;;;;2.63;2.33;;;35.70;99.90;;;;;;20985434;28;20223;-63
2021/06/12 16:03:13;;;;;;;2.53;2.10;;;35.80;99.90;;;;;;20987757;28;20231;-62
2021/06/12 16:13:17;;;;;;;3.33;2.30;;;35.10;99.90;;;;;;20986472;28;20231;-64
2021/06/12 16:23:21;;;;;;;6.47;3.30;;;35.00;99.90;;;;;;20949794;28;20233;-62
2021/06/12 16:33:25;;;;;;;2.90;2.20;;;35.00;99.90;;;;;;20902888;28;20240;-63
2021/06/12 16:43:30;;;;;;;2.13;1.65;;;35.40;99.90;;;;;;20981193;28;20220;-64
2021/06/12 16:53:35;;;;;;;8.15;3.10;;;35.20;99.90;;;;;;20982156;28;20212;-64
2021/06/12 17:03:39;;;;;;;2.58;1.70;;;35.10;99.90;;;;;;20965307;28;20228;-64
2021/06/12 17:13:43;;;;;;;3.58;1.67;;;35.10;99.90;;;;;;20981552;28;20220;-67
2021/06/12 17:23:47;;;;;;;2.92;1.92;;;34.80;99.90;;;;;;20939622;28;20197;-63
2021/06/12 17:33:51;;;;;;;2.38;1.88;;;34.60;99.90;;;;;;20896282;28;20235;-65
2021/06/12 17:43:56;;;;;;;2.50;1.95;;;34.50;99.90;;;;;;20897018;28;20195;-64
2021/06/12 17:54:00;;;;;;;2.22;2.03;;;33.80;99.90;;;;;;20898469;28;20229;-65
2021/06/12 18:04:05;;;;;;;2.38;1.40;;;33.50;99.90;;;;;;20878082;28;20223;-64
2021/06/12 18:14:08;;;;;;;4.07;2.22;;;32.80;99.90;;;;;;20968131;28;20739;-63
2021/06/12 18:24:14;;;;;;;2.83;1.90;;;32.10;99.90;;;;;;20961557;28;20622;-67
2021/06/12 18:34:18;;;;;;;4.07;2.35;;;32.00;99.90;;;;;;20965060;28;20224;-64
2021/06/12 18:44:22;;;;;;;2.22;1.63;;;31.60;99.90;;;;;;20992988;28;20579;-65
2021/06/12 18:54:26;;;;;;;2.33;1.90;;;30.90;99.90;;;;;;20954700;28;20294;-65
2021/06/12 19:04:30;;;;;;;1.95;1.52;;;29.90;99.90;;;;;;20971566;28;20220;-64
2021/06/12 19:14:37;;;;;;;2.80;1.70;;;28.70;99.90;;;;;;20969198;28;20225;-64
2021/06/12 19:24:42;;;;;;;2.72;1.85;;;28.60;99.90;;;;;;20954508;28;20670;-63
2021/06/12 19:34:48;;;;;;;3.17;1.85;;;28.10;99.90;;;;;;20996077;28;20244;-65
2021/06/12 19:44:57;;;;;;;2.53;1.83;;;27.40;99.90;;;;;;20986917;28;20263;-63
2021/06/12 19:55:00;;;;;;;2.08;1.25;;;27.10;99.90;;;;;;20966375;28;20256;-63
2021/06/12 20:05:06;;;;;;;6.07;1.75;;;26.70;99.90;;;;;;20984580;28;20311;-63
2021/06/12 20:15:11;;;;;;;3.30;2.03;;;26.50;99.90;;;;;;20979584;28;20298;-64
2021/06/12 20:25:15;;;;;;;2.63;1.40;;;26.50;99.90;;;;;;20976876;28;20277;-65
2021/06/12 20:35:18;;;;;;;5.95;2.28;;;26.20;99.90;;;;;;20982510;28;20284;-65
2021/06/12 20:45:23;;;;;;;5.07;2.13;;;26.00;99.90;;;;;;20982023;28;20276;-64
2021/06/12 20:55:26;;;;;;;2.53;1.50;;;25.80;99.90;;;;;;20966834;28;20282;-64
2021/06/12 21:05:33;;;;;;;4.30;2.03;;;25.70;99.90;;;;;;20963366;28;20232;-65
2021/06/12 21:15:38;;;;;;;2.25;2.00;;;25.40;99.90;;;;;;20979742;28;20297;-64
2021/06/12 21:25:42;;;;;;;1.90;1.35;;;25.40;99.90;;;;;;20948505;28;20207;-65
2021/06/12 21:35:46;;;;;;;3.03;1.58;;;25.30;99.90;;;;;;20936675;28;20522;-64
2021/06/12 21:45:50;;;;;;;1.77;1.65;;;25.10;99.90;;;;;;20936057;28;20207;-64
2021/06/12 21:55:53;;;;;;;2.97;2.17;;;25.30;99.90;;;;;;20935373;28;20212;-63
2021/06/12 22:05:58;;;;;;;2.67;2.07;;;25.10;99.90;;;;;;20964898;28;20652;-64
2021/06/12 22:16:01;;;;;;;2.20;1.48;;;25.30;99.90;;;;;;20991994;28;20228;-63
2021/06/12 22:26:11;;;;;;;1.95;1.60;;;25.40;99.90;;;;;;20994321;28;20254;-60
2021/06/12 22:36:14;;;;;;;2.13;1.52;;;25.10;99.90;;;;;;20991684;28;20231;-63
2021/06/12 22:46:19;;;;;;;3.75;2.03;;;25.50;99.90;;;;;;20978099;28;20197;-64
2021/06/12 22:56:25;;;;;;;2.47;1.55;;;25.50;99.90;;;;;;20954826;28;20221;-61
2021/06/12 23:06:30;;;;;;;3.45;2.30;;;25.50;99.90;;;;;;20993798;28;20289;-63
2021/06/12 23:16:33;;;;;;;6.13;2.00;;;25.40;99.90;;;;;;20913563;28;20225;-64
2021/06/12 23:26:37;;;;;;;2.58;1.85;;;25.10;99.90;;;;;;20972155;28;20189;-64
2021/06/12 23:36:40;;;;;;;3.95;2.47;;;25.60;99.90;;;;;;20990836;28;20220;-62
2021/06/12 23:46:45;;;;;;;3.70;2.75;;;26.00;99.90;;;;;;20990622;28;20621;-63
2021/06/12 23:56:48;;;;;;;1.85;1.58;;;26.10;99.90;;;;;;20989008;28;20248;-64
